sensor_id;sensor_type;location;lat;lon;timestamp;pressure;altitude;pressure_sealevel;temperature;humidity
79780;BME280;69258;52.050;10.334;2024-02-26T00:06:02;98320.31;;;20.18;51.39
79780;BME280;69258;52.050;10.334;2024-02-26T00:21:04;98325.81;;;20.11;51.27
79780;BME280;69258;52.050;10.334;2024-02-26T00:36:07;98312.91;;;20.08;51.56
79780;BME280;69258;52.050;10.334;2024-02-26T00:51:09;98297.31;;;20.05;50.76
79780;BME280;69258;52.050;10.334;2024-02-26T01:06:11;98291.63;;;20.02;51.20
79780;BME280;69258;52.050;10.334;2024-02-26T01:21:13;98295.25;;;19.96;51.38
79780;BME280;69258;52.050;10.334;2024-02-26T01:36:16;98301.06;;;20.04;51.14
79780;BME280;69258;52.050;10.334;2024-02-26T01:51:19;98275.91;;;20.17;51.04
79780;BME280;69258;52.050;10.334;2024-02-26T02:06:22;98266.69;;;20.25;51.32
79780;BME280;69258;52.050;10.334;2024-02-26T02:21:25;98283.72;;;20.30;51.35
79780;BME280;69258;52.050;10.334;2024-02-26T02:36:27;98276.84;;;20.34;50.94
79780;BME280;69258;52.050;10.334;2024-02-26T02:51:30;98278.00;;;20.38;50.97
79780;BME280;69258;52.050;10.334;2024-02-26T03:06:33;98289.03;;;20.42;51.05
79780;BME280;69258;52.050;10.334;2024-02-26T03:21:36;98291.44;;;20.43;50.69
79780;BME280;69258;52.050;10.334;2024-02-26T03:36:42;98305.66;;;20.44;50.93
79780;BME280;69258;52.050;10.334;2024-02-26T03:51:44;98286.69;;;20.45;51.01
79780;BME280;69258;52.050;10.334;2024-02-26T04:06:47;98301.69;;;20.46;50.46
79780;BME280;69258;52.050;10.334;2024-02-26T04:21:49;98309.72;;;20.46;50.43
79780;BME280;69258;52.050;10.334;2024-02-26T04:36:52;98333.81;;;20.46;50.78
79780;BME280;69258;52.050;10.334;2024-02-26T04:51:54;98340.75;;;20.47;50.48
79780;BME280;69258;52.050;10.334;2024-02-26T05:06:56;98345.66;;;20.50;50.76
79780;BME280;69258;52.050;10.334;2024-02-26T05:21:59;98342.25;;;20.55;50.56
79780;BME280;69258;52.050;10.334;2024-02-26T05:37:02;98356.22;;;20.57;50.40
79780;BME280;69258;52.050;10.334;2024-02-26T05:52:05;98364.59;;;20.60;50.85
79780;BME280;69258;52.050;10.334;2024-02-26T06:07:08;98381.00;;;20.64;51.00
79780;BME280;69258;52.050;10.334;2024-02-26T06:22:11;98415.56;;;20.65;50.92
79780;BME280;69258;52.050;10.334;2024-02-26T06:37:14;98420.59;;;20.62;49.89
79780;BME280;69258;52.050;10.334;2024-02-26T06:52:16;98461.19;;;20.59;49.55
79780;BME280;69258;52.050;10.334;2024-02-26T07:07:19;98464.09;;;20.57;49.74
79780;BME280;69258;52.050;10.334;2024-02-26T07:22:22;98475.84;;;20.56;50.39
79780;BME280;69258;52.050;10.334;2024-02-26T07:37:23;98491.56;;;20.53;50.01
79780;BME280;69258;52.050;10.334;2024-02-26T07:52:25;98478.88;;;20.48;50.46
79780;BME280;69258;52.050;10.334;2024-02-26T08:07:27;98472.34;;;20.44;50.13
79780;BME280;69258;52.050;10.334;2024-02-26T08:22:30;98472.25;;;20.39;50.10
79780;BME280;69258;52.050;10.334;2024-02-26T08:37:32;98461.19;;;20.36;50.38
79780;BME280;69258;52.050;10.334;2024-02-26T08:52:33;98475.03;;;20.33;50.00
79780;BME280;69258;52.050;10.334;2024-02-26T09:07:37;98477.47;;;20.34;49.82
79780;BME280;69258;52.050;10.334;2024-02-26T09:22:39;98498.19;;;20.39;49.62
79780;BME280;69258;52.050;10.334;2024-02-26T09:37:43;98508.44;;;20.42;49.42
79780;BME280;69258;52.050;10.334;2024-02-26T09:52:46;98530.41;;;20.44;49.53
79780;BME280;69258;52.050;10.334;2024-02-26T10:07:49;98550.53;;;20.46;49.43
79780;BME280;69258;52.050;10.334;2024-02-26T10:22:51;98545.53;;;20.50;49.38
79780;BME280;69258;52.050;10.334;2024-02-26T10:37:54;98555.66;;;20.59;49.62
79780;BME280;69258;52.050;10.334;2024-02-26T10:52:57;98540.66;;;20.58;49.34
79780;BME280;69258;52.050;10.334;2024-02-26T11:08:00;98551.13;;;20.60;49.46
79780;BME280;69258;52.050;10.334;2024-02-26T11:23:02;98562.44;;;20.62;49.62
79780;BME280;69258;52.050;10.334;2024-02-26T11:38:04;98580.09;;;20.63;49.29
79780;BME280;69258;52.050;10.334;2024-02-26T11:53:25;98578.25;;;20.63;49.51
79780;BME280;69258;52.050;10.334;2024-02-26T12:08:28;98594.31;;;20.63;49.32
79780;BME280;69258;52.050;10.334;2024-02-26T12:23:30;98589.78;;;20.64;48.96
79780;BME280;69258;52.050;10.334;2024-02-26T12:38:33;98597.34;;;20.67;49.13
79780;BME280;69258;52.050;10.334;2024-02-26T12:53:37;98604.69;;;20.72;49.50
79780;BME280;69258;52.050;10.334;2024-02-26T13:08:40;98637.97;;;20.76;50.30
79780;BME280;69258;52.050;10.334;2024-02-26T13:23:42;98654.59;;;20.78;50.38
79780;BME280;69258;52.050;10.334;2024-02-26T13:38:53;98651.09;;;20.77;50.41
79780;BME280;69258;52.050;10.334;2024-02-26T13:53:56;98662.63;;;20.78;50.40
79780;BME280;69258;52.050;10.334;2024-02-26T14:08:59;98679.78;;;20.77;50.25
79780;BME280;69258;52.050;10.334;2024-02-26T14:24:01;98685.34;;;20.75;50.32
79780;BME280;69258;52.050;10.334;2024-02-26T14:39:02;98703.88;;;20.77;50.33
79780;BME280;69258;52.050;10.334;2024-02-26T14:54:05;98730.63;;;20.77;50.39
79780;BME280;69258;52.050;10.334;2024-02-26T15:09:08;98741.91;;;20.79;49.93
79780;BME280;69258;52.050;10.334;2024-02-26T15:24:11;98757.97;;;20.79;50.40
79780;BME280;69258;52.050;10.334;2024-02-26T15:39:13;98777.75;;;20.78;50.50
79780;BME280;69258;52.050;10.334;2024-02-26T15:54:16;98784.19;;;20.77;50.30
79780;BME280;69258;52.050;10.334;2024-02-26T16:09:19;98806.63;;;20.76;50.33
79780;BME280;69258;52.050;10.334;2024-02-26T16:24:22;98836.09;;;20.76;49.94
79780;BME280;69258;52.050;10.334;2024-02-26T16:39:25;98862.25;;;20.74;49.74
79780;BME280;69258;52.050;10.334;2024-02-26T16:54:27;98886.59;;;20.72;49.80
79780;BME280;69258;52.050;10.334;2024-02-26T17:09:29;98911.50;;;20.73;49.56
79780;BME280;69258;52.050;10.334;2024-02-26T17:24:32;98910.69;;;20.72;49.17
79780;BME280;69258;52.050;10.334;2024-02-26T17:39:34;98935.34;;;20.74;49.49
79780;BME280;69258;52.050;10.334;2024-02-26T17:54:38;98967.72;;;20.73;49.57
79780;BME280;69258;52.050;10.334;2024-02-26T18:09:40;98989.97;;;20.73;50.32
79780;BME280;69258;52.050;10.334;2024-02-26T18:24:42;99010.56;;;20.73;50.24
79780;BME280;69258;52.050;10.334;2024-02-26T18:39:44;99016.75;;;20.73;50.16
79780;BME280;69258;52.050;10.334;2024-02-26T18:54:47;99014.84;;;20.74;50.00
79780;BME280;69258;52.050;10.334;2024-02-26T19:09:50;99045.94;;;20.75;49.93
79780;BME280;69258;52.050;10.334;2024-02-26T19:24:53;99085.06;;;20.76;50.20
79780;BME280;69258;52.050;10.334;2024-02-26T19:39:54;99118.25;;;20.75;50.48
79780;BME280;69258;52.050;10.334;2024-02-26T19:54:57;99137.81;;;20.75;50.01
79780;BME280;69258;52.050;10.334;2024-02-26T20:10:00;99138.63;;;20.76;50.46
79780;BME280;69258;52.050;10.334;2024-02-26T20:25:02;99142.56;;;20.73;50.17
79780;BME280;69258;52.050;10.334;2024-02-26T20:40:05;99182.13;;;20.71;50.30
79780;BME280;69258;52.050;10.334;2024-02-26T20:55:08;99207.25;;;20.70;50.22
79780;BME280;69258;52.050;10.334;2024-02-26T21:10:11;99236.53;;;20.65;50.57
79780;BME280;69258;52.050;10.334;2024-02-26T21:25:14;99252.63;;;20.58;50.68
79780;BME280;69258;52.050;10.334;2024-02-26T21:40:17;99258.84;;;20.52;50.16
79780;BME280;69258;52.050;10.334;2024-02-26T21:55:20;99284.38;;;20.48;50.18
79780;BME280;69258;52.050;10.334;2024-02-26T22:10:23;99304.56;;;20.44;49.87
79780;BME280;69258;52.050;10.334;2024-02-26T22:25:26;99321.50;;;20.38;50.28
79780;BME280;69258;52.050;10.334;2024-02-26T22:40:28;99327.66;;;20.32;50.16
79780;BME280;69258;52.050;10.334;2024-02-26T22:55:31;99336.13;;;20.29;49.82
79780;BME280;69258;52.050;10.334;2024-02-26T23:10:34;99361.63;;;20.25;49.91
79780;BME280;69258;52.050;10.334;2024-02-26T23:25:36;99378.28;;;20.20;49.94
79780;BME280;69258;52.050;10.334;2024-02-26T23:40:39;99387.78;;;20.16;50.25
79780;BME280;69258;52.050;10.334;2024-02-26T23:55:41;99418.03;;;20.10;49.88
